Time;durP1;ratioP1;P1;durP2;ratioP2;P2;SDS_P1;SDS_P2;PMS_P1;PMS_P2;Temp;Humidity;BMP_temperature;BMP_pressure;BME280_temperature;BME280_humidity;BME280_pressure;Samples;Min_cycle;Max_cycle;Signal;HPM_P1;HPM_P2
2022/12/05 15:03:21;;;;;;;33.97;21.30;;;0.60;95.60;;;;;;5111626;27;20105;-59
2022/12/05 15:05:47;;;;;;;29.23;17.90;;;0.70;95.60;;;;;;5110994;28;20472;-59
2022/12/05 15:08:14;;;;;;;31.55;19.38;;;0.80;95.60;;;;;;5111000;28;20493;-58
2022/12/05 15:10:42;;;;;;;42.85;22.95;;;0.80;95.60;;;;;;5109731;28;20024;-58
2022/12/05 15:13:17;;;;;;;39.40;21.80;;;0.80;95.60;;;;;;5110179;28;20032;-60
2022/12/05 15:15:46;;;;;;;30.20;19.70;;;0.80;95.60;;;;;;5111689;28;20024;-59
2022/12/05 15:18:41;;;;;;;30.85;19.00;;;0.80;95.60;;;;;;5110896;28;20046;-60
2022/12/05 15:21:21;;;;;;;34.70;19.45;;;0.80;95.60;;;;;;5111159;28;20349;-59
2022/12/05 15:23:54;;;;;;;28.65;18.55;;;0.70;95.60;;;;;;5111068;28;20024;-58
2022/12/05 15:26:24;;;;;;;29.38;17.85;;;0.80;95.60;;;;;;5111242;28;20031;-59
2022/12/05 15:29:00;;;;;;;25.30;15.02;;;0.90;95.70;;;;;;5111056;28;20063;-60
2022/12/05 15:31:31;;;;;;;25.63;16.27;;;1.00;95.70;;;;;;5110860;28;20039;-60
2022/12/05 15:34:04;;;;;;;23.02;15.05;;;0.80;95.50;;;;;;5110765;28;20020;-59
2022/12/05 15:36:37;;;;;;;23.13;15.32;;;0.80;95.50;;;;;;5111615;28;20372;-59
2022/12/05 15:39:24;;;;;;;28.08;15.82;;;0.90;95.60;;;;;;5110650;28;20068;-58
2022/12/05 15:41:51;;;;;;;23.65;15.45;;;0.90;95.50;;;;;;5110612;28;20081;-59
2022/12/05 15:44:21;;;;;;;23.90;14.32;;;0.90;95.30;;;;;;5108933;28;20028;-60
2022/12/05 15:46:55;;;;;;;17.35;9.93;;;0.90;95.20;;;;;;5110349;28;20136;-58
2022/12/05 15:49:24;;;;;;;22.13;13.85;;;0.90;95.20;;;;;;5110524;28;20405;-59
2022/12/05 15:51:55;;;;;;;27.30;15.77;;;0.90;95.20;;;;;;5110097;28;20031;-58
2022/12/05 15:54:30;;;;;;;27.83;16.08;;;0.90;95.20;;;;;;5110422;28;20019;-58
2022/12/05 15:57:07;;;;;;;25.45;16.52;;;0.80;95.20;;;;;;5110277;28;20078;-60
2022/12/05 15:59:42;;;;;;;30.00;18.00;;;0.90;95.20;;;;;;5110257;28;20043;-59
2022/12/05 16:02:18;;;;;;;35.05;20.00;;;1.00;95.20;;;;;;5108710;28;20040;-57
2022/12/05 16:04:52;;;;;;;33.72;20.40;;;1.00;95.10;;;;;;5109879;28;20469;-57
2022/12/05 16:07:19;;;;;;;44.00;25.40;;;1.00;95.10;;;;;;5109809;28;20027;-58
2022/12/05 16:09:46;;;;;;;40.55;25.38;;;1.00;95.10;;;;;;5110039;28;20464;-59
2022/12/05 16:12:21;;;;;;;46.47;25.55;;;1.00;95.10;;;;;;5109891;28;20035;-58
2022/12/05 16:14:52;;;;;;;46.63;26.83;;;1.00;95.10;;;;;;5095790;28;20080;-59
2022/12/05 16:17:19;;;;;;;51.47;27.67;;;1.00;95.00;;;;;;5094778;28;20386;-58
2022/12/05 16:19:45;;;;;;;46.15;26.40;;;1.00;95.00;;;;;;5094808;28;20161;-58
2022/12/05 16:22:11;;;;;;;41.55;25.40;;;1.10;95.00;;;;;;5095974;28;20088;-59
2022/12/05 16:24:47;;;;;;;44.85;25.00;;;1.20;95.00;;;;;;5095912;28;20107;-56
2022/12/05 16:27:22;;;;;;;33.75;21.77;;;1.20;94.90;;;;;;5096163;28;20084;-58
2022/12/05 16:30:07;;;;;;;39.45;22.33;;;1.20;94.90;;;;;;5096243;28;20020;-58
2022/12/05 16:32:34;;;;;;;42.40;22.48;;;1.20;94.80;;;;;;5096177;28;20102;-59
2022/12/05 16:35:00;;;;;;;37.42;20.60;;;1.10;94.70;;;;;;5096146;28;20020;-58
2022/12/05 16:37:28;;;;;;;40.10;19.42;;;1.10;94.70;;;;;;5095908;28;20384;-59
2022/12/05 16:39:54;;;;;;;34.58;19.45;;;1.10;94.70;;;;;;5095937;28;20111;-59
2022/12/05 16:42:29;;;;;;;29.58;18.70;;;1.10;94.70;;;;;;5094450;28;20157;-59
2022/12/05 16:45:02;;;;;;;30.23;17.80;;;1.10;94.80;;;;;;5096739;28;20077;-59
2022/12/05 16:47:41;;;;;;;30.25;19.17;;;1.10;94.70;;;;;;5095074;28;20031;-58
2022/12/05 16:50:31;;;;;;;32.00;19.15;;;1.20;94.80;;;;;;5095032;28;20016;-58
2022/12/05 16:53:02;;;;;;;31.65;18.67;;;1.10;94.70;;;;;;5095105;28;20476;-57
2022/12/05 16:55:28;;;;;;;31.35;18.02;;;1.10;94.70;;;;;;5095600;28;20122;-60
2022/12/05 16:57:55;;;;;;;30.10;18.33;;;1.20;94.70;;;;;;5094283;28;20055;-58
2022/12/05 17:00:21;;;;;;;28.25;17.20;;;1.20;94.70;;;;;;5095420;28;20024;-61
2022/12/05 17:02:47;;;;;;;36.17;17.42;;;1.20;94.50;;;;;;5095492;28;20124;-60
2022/12/05 17:05:14;;;;;;;32.25;19.92;;;1.10;94.40;;;;;;5094065;28;20024;-61
2022/12/05 17:07:41;;;;;;;29.10;18.40;;;1.10;94.60;;;;;;5094749;28;20089;-59
2022/12/05 17:10:08;;;;;;;29.83;18.10;;;1.10;94.60;;;;;;5094586;28;20392;-57
2022/12/05 17:12:34;;;;;;;39.25;20.58;;;1.10;94.60;;;;;;5077455;28;20103;-60
2022/12/05 17:14:59;;;;;;;37.15;18.58;;;1.10;94.50;;;;;;5095349;28;20487;-59
2022/12/05 17:17:25;;;;;;;28.58;18.13;;;1.30;94.70;;;;;;5095465;28;20028;-59
2022/12/05 17:19:51;;;;;;;31.92;19.60;;;1.20;94.50;;;;;;5093761;28;20024;-58
2022/12/05 17:22:16;;;;;;;39.28;19.02;;;1.20;94.60;;;;;;5094863;28;20028;-59
2022/12/05 17:24:42;;;;;;;38.38;19.80;;;1.30;94.50;;;;;;5093920;28;20027;-59
2022/12/05 17:27:11;;;;;;;34.92;19.27;;;1.10;94.30;;;;;;5095190;28;20113;-59
2022/12/05 17:29:37;;;;;;;36.58;20.73;;;1.30;94.50;;;;;;5094642;28;20035;-60
2022/12/05 17:32:03;;;;;;;41.60;20.85;;;1.20;94.40;;;;;;5095096;28;20028;-59
2022/12/05 17:34:29;;;;;;;42.95;22.50;;;1.00;94.20;;;;;;5095195;28;20059;-57
2022/12/05 17:36:55;;;;;;;42.13;22.73;;;1.10;94.20;;;;;;5094761;28;20043;-59
2022/12/05 17:39:21;;;;;;;51.67;28.77;;;1.20;94.40;;;;;;5094546;28;20028;-59
2022/12/05 17:41:46;;;;;;;41.70;23.75;;;1.10;94.30;;;;;;5094564;28;20107;-60
2022/12/05 17:44:14;;;;;;;48.40;24.20;;;1.20;94.40;;;;;;5094877;28;20106;-61
2022/12/05 17:46:41;;;;;;;50.08;26.40;;;1.20;94.30;;;;;;5093488;28;20388;-62
2022/12/05 17:49:15;;;;;;;44.42;25.17;;;1.10;94.30;;;;;;5094707;28;20152;-59
2022/12/05 17:51:42;;;;;;;43.55;25.17;;;1.10;94.30;;;;;;5095044;28;20043;-58
2022/12/05 17:54:07;;;;;;;53.67;27.10;;;1.10;94.30;;;;;;5093337;28;20035;-59
2022/12/05 17:56:33;;;;;;;50.83;29.70;;;1.10;94.40;;;;;;5094841;28;20032;-60
2022/12/05 17:58:59;;;;;;;42.83;27.40;;;1.20;94.40;;;;;;5094767;28;20035;-58
2022/12/05 18:01:24;;;;;;;48.58;26.70;;;1.10;94.30;;;;;;5094633;28;20036;-58
2022/12/05 18:03:50;;;;;;;45.80;26.73;;;1.10;94.30;;;;;;5094978;28;20475;-59
2022/12/05 18:06:17;;;;;;;48.17;28.60;;;1.00;94.30;;;;;;5094724;28;20095;-57
2022/12/05 18:08:44;;;;;;;50.33;28.60;;;1.10;94.40;;;;;;5094375;28;20472;-57
2022/12/05 18:11:11;;;;;;;44.03;26.98;;;1.20;94.50;;;;;;5094523;28;20035;-59
2022/12/05 18:13:37;;;;;;;46.60;26.23;;;1.20;94.40;;;;;;5094471;28;20107;-60
2022/12/05 18:16:03;;;;;;;50.15;27.08;;;1.20;94.40;;;;;;5094132;28;20035;-59
2022/12/05 18:18:29;;;;;;;52.58;28.13;;;1.10;94.40;;;;;;5093959;28;20107;-60
2022/12/05 18:21:11;;;;;;;47.38;26.58;;;1.00;94.30;;;;;;5094181;28;20035;-60
2022/12/05 18:23:38;;;;;;;43.30;24.23;;;1.20;94.60;;;;;;5094281;28;20379;-59
2022/12/05 18:26:06;;;;;;;41.67;24.33;;;1.00;94.50;;;;;;5093966;28;20030;-60
2022/12/05 18:28:36;;;;;;;48.50;25.33;;;1.00;94.60;;;;;;5093882;28;20042;-61
2022/12/05 18:31:09;;;;;;;50.13;24.40;;;1.00;94.60;;;;;;5094409;28;20016;-62
2022/12/05 18:33:35;;;;;;;48.08;25.60;;;1.00;94.70;;;;;;5093786;28;20646;-59
2022/12/05 18:36:10;;;;;;;46.95;26.85;;;1.00;94.60;;;;;;5094170;28;20031;-59
2022/12/05 18:38:37;;;;;;;44.53;25.52;;;1.10;94.80;;;;;;5092197;28;20135;-57
2022/12/05 18:41:04;;;;;;;43.00;26.20;;;1.20;94.80;;;;;;5092334;28;20476;-60
2022/12/05 18:43:31;;;;;;;48.13;24.48;;;1.20;94.70;;;;;;5092390;28;20353;-59
2022/12/05 18:45:58;;;;;;;49.70;27.05;;;1.10;94.70;;;;;;5094021;28;20424;-60
2022/12/05 18:48:25;;;;;;;60.95;29.67;;;1.30;94.70;;;;;;5093576;28;20027;-59
2022/12/05 18:50:51;;;;;;;53.17;27.77;;;1.10;94.50;;;;;;5093433;28;20528;-60
2022/12/05 18:53:17;;;;;;;63.42;29.20;;;1.20;94.60;;;;;;5093722;28;20016;-60
2022/12/05 18:55:43;;;;;;;49.60;27.48;;;1.10;94.60;;;;;;5093449;28;20028;-61
2022/12/05 18:58:09;;;;;;;59.15;30.77;;;1.10;94.70;;;;;;5092342;28;20055;-61
2022/12/05 19:00:34;;;;;;;56.00;29.75;;;1.10;94.70;;;;;;5093408;28;20056;-61
2022/12/05 19:03:00;;;;;;;60.28;27.73;;;1.10;94.70;;;;;;5093344;28;20076;-61
2022/12/05 19:05:25;;;;;;;54.08;27.35;;;1.10;94.80;;;;;;5092108;28;20027;-59
2022/12/05 19:07:54;;;;;;;62.92;28.58;;;1.10;94.80;;;;;;5093414;28;20095;-60
2022/12/05 19:10:20;;;;;;;49.35;26.75;;;1.20;94.90;;;;;;5093436;28;20016;-60
2022/12/05 19:12:45;;;;;;;52.53;26.40;;;1.20;94.80;;;;;;5093524;28;20024;-62
2022/12/05 19:15:11;;;;;;;41.75;23.45;;;1.10;94.80;;;;;;5091841;28;20506;-59
2022/12/05 19:17:37;;;;;;;46.17;24.95;;;1.20;94.90;;;;;;5093340;28;20031;-58
2022/12/05 19:20:03;;;;;;;47.25;23.50;;;1.20;94.90;;;;;;5092945;28;20074;-59
2022/12/05 19:22:30;;;;;;;51.15;25.40;;;1.20;94.80;;;;;;5093373;28;20035;-60
2022/12/05 19:24:56;;;;;;;47.05;23.42;;;1.30;94.80;;;;;;5093216;28;20024;-59
2022/12/05 19:27:22;;;;;;;47.38;22.05;;;1.30;94.90;;;;;;5093345;28;20028;-58
2022/12/05 19:29:47;;;;;;;52.13;23.92;;;1.30;94.70;;;;;;5093474;28;20013;-59
2022/12/05 19:32:13;;;;;;;52.25;23.17;;;1.30;94.60;;;;;;5093086;28;20089;-60
2022/12/05 19:34:39;;;;;;;47.60;22.27;;;1.20;94.60;;;;;;5093384;28;20024;-59
2022/12/05 19:37:05;;;;;;;54.78;23.30;;;1.30;94.70;;;;;;5093104;28;20032;-59
2022/12/05 19:39:31;;;;;;;43.25;22.83;;;1.40;94.70;;;;;;5092945;28;20064;-56
2022/12/05 19:41:58;;;;;;;47.70;23.35;;;1.40;94.60;;;;;;5092824;28;20024;-60
2022/12/05 19:44:24;;;;;;;44.00;23.23;;;1.40;94.40;;;;;;5091804;28;20115;-59
2022/12/05 19:46:50;;;;;;;46.22;24.77;;;1.40;94.40;;;;;;5092891;28;20473;-63
2022/12/05 19:49:16;;;;;;;41.55;22.77;;;1.40;94.30;;;;;;5094408;28;20027;-58
2022/12/05 19:51:43;;;;;;;44.28;23.38;;;1.50;94.30;;;;;;5096730;28;20028;-60
2022/12/05 19:54:11;;;;;;;48.03;21.92;;;1.40;94.30;;;;;;5097097;28;20032;-58
2022/12/05 19:56:38;;;;;;;42.97;22.70;;;1.50;94.20;;;;;;5096766;28;20020;-60
2022/12/05 19:59:04;;;;;;;40.13;21.45;;;1.40;94.00;;;;;;5096780;28;20036;-60
2022/12/05 20:01:32;;;;;;;38.50;21.75;;;1.30;94.00;;;;;;5096211;28;20051;-60
2022/12/05 20:04:04;;;;;;;36.53;20.70;;;1.40;94.10;;;;;;5097120;28;20032;-59
2022/12/05 20:06:32;;;;;;;36.70;20.90;;;1.30;94.10;;;;;;5096678;28;20020;-59
2022/12/05 20:08:59;;;;;;;40.15;22.67;;;1.30;94.30;;;;;;5096698;28;20487;-61
2022/12/05 20:11:27;;;;;;;33.95;21.77;;;1.30;94.30;;;;;;5096643;28;20040;-59
2022/12/05 20:13:54;;;;;;;37.90;20.45;;;1.30;94.40;;;;;;5096681;28;20028;-59
2022/12/05 20:16:22;;;;;;;42.17;20.88;;;1.30;94.40;;;;;;5096572;28;20101;-60
2022/12/05 20:18:49;;;;;;;36.83;20.20;;;1.30;94.40;;;;;;5096629;28;20028;-60
2022/12/05 20:21:17;;;;;;;40.70;21.20;;;1.30;94.50;;;;;;5096596;28;20055;-58
2022/12/05 20:23:43;;;;;;;40.17;18.77;;;1.20;94.50;;;;;;5096329;28;20476;-59
2022/12/05 20:26:15;;;;;;;36.03;18.35;;;1.30;94.60;;;;;;5096012;28;20069;-59
2022/12/05 20:28:42;;;;;;;34.10;18.35;;;1.20;94.60;;;;;;5096581;28;20024;-60
2022/12/05 20:31:10;;;;;;;34.42;19.58;;;1.30;94.60;;;;;;5096231;28;20107;-59
2022/12/05 20:33:36;;;;;;;32.60;20.10;;;1.30;94.70;;;;;;5096444;28;20091;-58
2022/12/05 20:36:05;;;;;;;35.75;21.25;;;1.40;94.80;;;;;;5096547;28;20024;-58
2022/12/05 20:38:31;;;;;;;42.15;22.52;;;1.30;94.70;;;;;;5095856;28;20515;-58
2022/12/05 20:41:02;;;;;;;35.63;21.63;;;1.40;94.70;;;;;;5095916;28;20050;-58
2022/12/05 20:43:28;;;;;;;44.72;22.52;;;1.30;94.70;;;;;;5096226;28;20020;-59
2022/12/05 20:45:54;;;;;;;38.00;20.48;;;1.30;94.70;;;;;;5095824;28;20029;-58
2022/12/05 20:48:24;;;;;;;34.67;20.52;;;1.30;94.70;;;;;;5095894;28;20016;-60
2022/12/05 20:50:51;;;;;;;43.67;23.37;;;1.40;94.70;;;;;;5095428;28;20020;-60
2022/12/05 20:53:17;;;;;;;40.80;21.00;;;1.30;94.70;;;;;;5095689;28;20039;-59
2022/12/05 20:55:43;;;;;;;40.35;21.30;;;1.40;94.70;;;;;;5095423;28;20024;-60
2022/12/05 20:58:08;;;;;;;47.65;23.33;;;1.40;94.70;;;;;;5095597;28;20115;-59
2022/12/05 21:00:34;;;;;;;41.38;22.13;;;1.40;94.70;;;;;;5095724;28;20042;-58
